Time;durP1;ratioP1;P1;durP2;ratioP2;P2;SDS_P1;SDS_P2;PMS_P1;PMS_P2;Temp;Humidity;BMP_temperature;BMP_pressure;BME280_temperature;BME280_humidity;BME280_pressure;Samples;Min_cycle;Max_cycle;Signal;HPM_P1;HPM_P2
2022/11/17 00:00:19;;;;;;;14.25;10.52;;;8.10;99.90;;;;;;4661145;28;10000694;-73
2022/11/17 00:02:46;;;;;;;18.10;10.60;;;8.10;99.90;;;;;;4656791;28;10000033;-74
2022/11/17 00:05:12;;;;;;;14.65;10.15;;;8.10;99.90;;;;;;5015988;28;20123;-73
2022/11/17 00:07:38;;;;;;;14.63;10.85;;;8.10;99.90;;;;;;5012105;28;20026;-73
2022/11/17 00:10:04;;;;;;;17.80;11.65;;;8.10;99.90;;;;;;5010328;28;20694;-73
2022/11/17 00:15:14;;;;;;;15.30;10.85;;;8.10;99.90;;;;;;5009007;28;20033;-73
2022/11/17 00:17:40;;;;;;;15.88;11.07;;;8.10;99.90;;;;;;5016086;28;20037;-73
2022/11/17 00:22:50;;;;;;;18.20;11.00;;;8.20;99.90;;;;;;5012491;28;20442;-73
2022/11/17 00:25:16;;;;;;;14.48;10.02;;;8.20;99.90;;;;;;5015399;28;20038;-74
2022/11/17 00:27:41;;;;;;;16.17;10.10;;;8.20;99.90;;;;;;5009871;28;20053;-73
2022/11/17 00:30:07;;;;;;;14.88;10.10;;;8.20;99.90;;;;;;5014777;28;21521;-73
2022/11/17 00:35:17;;;;;;;15.55;9.98;;;8.20;99.90;;;;;;5004779;28;20044;-73
2022/11/17 00:38:14;;;;;;;15.15;10.30;;;8.20;99.90;;;;;;5006226;28;20021;-73
2022/11/17 00:40:29;;;;;;;16.90;10.30;;;8.20;99.90;;;;;;5016473;28;20029;-72
2022/11/17 00:42:54;;;;;;;16.00;10.07;;;8.20;99.90;;;;;;5010494;28;20033;-73
2022/11/17 00:45:20;;;;;;;14.20;9.48;;;8.20;99.90;;;;;;5018801;28;20029;-73
2022/11/17 00:47:47;;;;;;;13.90;9.90;;;8.20;99.90;;;;;;5015114;28;20025;-73
2022/11/17 00:50:12;;;;;;;15.30;10.13;;;8.20;99.90;;;;;;5013071;28;20026;-73
2022/11/17 00:52:38;;;;;;;13.10;9.43;;;8.20;99.90;;;;;;5008774;28;20131;-73
2022/11/17 00:55:04;;;;;;;17.33;10.00;;;8.20;99.90;;;;;;5006810;28;20033;-73
2022/11/17 00:57:30;;;;;;;16.30;9.98;;;8.20;99.90;;;;;;5006707;28;20026;-73
2022/11/17 00:59:55;;;;;;;14.57;9.68;;;8.20;99.90;;;;;;5007917;28;20543;-73
2022/11/17 01:02:21;;;;;;;12.18;9.18;;;8.20;99.90;;;;;;5006837;28;20389;-73
2022/11/17 01:04:46;;;;;;;12.57;9.45;;;8.10;99.90;;;;;;5008592;28;20120;-73
2022/11/17 01:07:12;;;;;;;12.93;9.10;;;8.10;99.90;;;;;;5011120;28;20038;-73
2022/11/17 01:09:38;;;;;;;15.23;10.25;;;8.10;99.90;;;;;;5016159;28;20033;-73
2022/11/17 01:12:03;;;;;;;13.07;9.10;;;8.10;99.90;;;;;;5014513;28;20026;-73
2022/11/17 01:14:31;;;;;;;14.10;9.55;;;8.10;99.90;;;;;;5008089;28;20713;-73
2022/11/17 01:16:57;;;;;;;14.48;9.85;;;8.10;99.90;;;;;;5015556;28;20494;-73
2022/11/17 01:19:23;;;;;;;15.70;9.57;;;8.10;99.90;;;;;;5010078;28;20044;-73
2022/11/17 01:21:49;;;;;;;14.23;10.35;;;8.10;99.90;;;;;;5012776;28;20037;-73
2022/11/17 01:24:15;;;;;;;14.88;10.30;;;8.10;99.90;;;;;;5016004;28;20026;-73
2022/11/17 01:26:42;;;;;;;16.05;9.68;;;8.00;99.90;;;;;;5014096;28;20140;-73
2022/11/17 01:29:10;;;;;;;12.43;9.27;;;8.00;99.90;;;;;;5016066;28;20034;-73
2022/11/17 01:31:39;;;;;;;14.98;10.90;;;8.00;99.90;;;;;;5011022;28;20690;-73
2022/11/17 01:34:06;;;;;;;16.65;10.05;;;8.10;99.90;;;;;;5015227;28;20045;-73
2022/11/17 01:37:17;;;;;;;15.10;10.20;;;8.00;99.90;;;;;;5021193;28;20039;-73
2022/11/17 01:39:24;;;;;;;15.93;11.20;;;8.00;99.90;;;;;;5019760;28;20385;-73
2022/11/17 01:41:51;;;;;;;15.00;10.40;;;8.00;99.90;;;;;;5016754;28;20425;-73
2022/11/17 01:44:54;;;;;;;18.50;11.50;;;7.90;99.90;;;;;;5018339;28;20061;-74
2022/11/17 01:47:32;;;;;;;15.93;11.40;;;7.90;99.90;;;;;;5009095;28;20517;-74
2022/11/17 01:50:13;;;;;;;16.13;11.93;;;7.90;99.90;;;;;;5012193;28;20124;-73
2022/11/17 01:52:41;;;;;;;16.70;11.23;;;7.90;99.90;;;;;;5015798;28;20013;-74
2022/11/17 01:55:08;;;;;;;17.25;11.93;;;7.80;99.90;;;;;;5018805;28;20543;-73
2022/11/17 01:57:44;;;;;;;16.05;11.57;;;7.90;99.90;;;;;;5015806;28;20118;-73
2022/11/17 02:00:11;;;;;;;15.15;11.05;;;7.90;99.90;;;;;;5012143;28;20033;-73
2022/11/17 02:02:38;;;;;;;14.38;10.52;;;7.80;99.90;;;;;;5008128;28;20100;-73
2022/11/17 02:05:15;;;;;;;17.65;12.15;;;7.80;99.90;;;;;;5004524;28;20507;-73
2022/11/17 02:07:43;;;;;;;18.23;11.73;;;7.90;99.90;;;;;;5009606;28;20053;-73
2022/11/17 02:10:09;;;;;;;16.42;11.45;;;7.80;99.90;;;;;;5008932;28;20028;-73
2022/11/17 02:12:35;;;;;;;19.85;11.88;;;7.90;99.90;;;;;;5010481;28;20030;-73
2022/11/17 02:15:02;;;;;;;18.63;12.18;;;7.80;99.90;;;;;;5015803;28;20099;-73
2022/11/17 02:17:40;;;;;;;20.50;12.35;;;7.90;99.90;;;;;;5008774;28;20033;-73
2022/11/17 02:20:13;;;;;;;16.85;11.60;;;7.90;99.90;;;;;;5011550;28;20401;-73
2022/11/17 02:22:57;;;;;;;;;;;7.90;99.90;;;;;;5006035;28;20026;-73
2022/11/17 02:25:28;;;;;;;;;;;7.90;99.90;;;;;;5019015;28;20046;-72
2022/11/17 02:28:12;;;;;;;18.20;11.75;;;7.90;99.90;;;;;;5015957;28;20296;-73
2022/11/17 02:30:54;;;;;;;20.23;11.77;;;7.90;99.90;;;;;;5013403;28;22261;-72
2022/11/17 02:33:39;;;;;;;20.65;11.93;;;7.90;99.90;;;;;;5015388;28;20057;-72
2022/11/17 02:36:17;;;;;;;18.38;12.10;;;8.00;99.90;;;;;;5012241;28;20093;-72
2022/11/17 02:38:59;;;;;;;19.80;12.57;;;8.00;99.90;;;;;;5013907;28;20130;-72
2022/11/17 02:41:37;;;;;;;20.63;13.38;;;7.90;99.90;;;;;;5013893;28;20456;-72
2022/11/17 02:44:09;;;;;;;18.17;12.27;;;7.90;99.90;;;;;;5012703;28;20056;-71
2022/11/17 02:46:49;;;;;;;20.25;12.82;;;8.00;99.90;;;;;;5012537;28;20044;-72
2022/11/17 02:49:25;;;;;;;22.98;13.50;;;7.90;99.90;;;;;;5011507;28;20664;-72
2022/11/17 02:51:55;;;;;;;17.98;11.60;;;8.00;99.90;;;;;;5012020;28;20148;-72
2022/11/17 02:54:22;;;;;;;18.85;13.10;;;8.00;99.90;;;;;;5008190;28;20049;-72
2022/11/17 02:56:48;;;;;;;19.35;12.38;;;8.00;99.90;;;;;;5009716;28;20734;-71
2022/11/17 02:59:19;;;;;;;18.05;11.40;;;8.00;99.90;;;;;;5010700;28;20018;-71
2022/11/17 03:02:00;;;;;;;18.15;11.98;;;8.10;99.90;;;;;;4993016;28;20104;-72
2022/11/17 03:04:29;;;;;;;19.92;12.27;;;8.10;99.90;;;;;;5011570;28;20032;-71
2022/11/17 03:06:57;;;;;;;18.00;11.77;;;8.10;99.90;;;;;;5013910;28;20061;-71
2022/11/17 03:09:41;;;;;;;18.60;12.27;;;8.10;99.90;;;;;;5015412;28;20025;-71
2022/11/17 03:12:28;;;;;;;18.58;11.98;;;8.10;99.90;;;;;;5010316;28;20657;-71
2022/11/17 03:15:20;;;;;;;18.35;12.20;;;8.10;99.90;;;;;;5014566;28;20109;-72
2022/11/17 03:18:02;;;;;;;18.95;12.00;;;8.00;99.90;;;;;;5017896;28;20507;-71
2022/11/17 03:20:37;;;;;;;19.02;11.82;;;8.10;99.90;;;;;;5009555;28;20030;-71
2022/11/17 03:23:09;;;;;;;21.17;12.23;;;8.10;99.90;;;;;;5007194;28;20026;-71
2022/11/17 03:25:40;;;;;;;18.45;11.80;;;8.10;99.90;;;;;;5010373;28;20032;-71
2022/11/17 03:28:08;;;;;;;20.45;12.30;;;8.10;99.90;;;;;;5011769;28;20029;-71
2022/11/17 03:30:37;;;;;;;18.95;11.93;;;8.10;99.90;;;;;;5012887;28;20030;-71
2022/11/17 03:33:09;;;;;;;19.23;12.32;;;8.10;99.90;;;;;;5001748;28;20044;-71
2022/11/17 03:35:39;;;;;;;18.58;12.00;;;8.10;99.90;;;;;;5012253;28;20084;-71
2022/11/17 03:38:09;;;;;;;18.27;11.35;;;8.10;99.90;;;;;;5011958;28;20049;-71
2022/11/17 03:40:38;;;;;;;16.38;11.30;;;8.10;99.90;;;;;;5015952;28;20477;-71
2022/11/17 03:43:06;;;;;;;18.67;11.50;;;8.10;99.90;;;;;;5005485;28;20025;-71
2022/11/17 03:45:41;;;;;;;16.35;10.25;;;8.10;99.90;;;;;;5015330;28;20033;-71
2022/11/17 03:48:14;;;;;;;16.45;10.45;;;8.20;99.90;;;;;;5009185;28;20910;-71
2022/11/17 03:50:44;;;;;;;;;;;8.20;99.90;;;;;;5014784;28;20025;-71
2022/11/17 03:53:10;;;;;;;16.83;10.70;;;8.30;99.90;;;;;;5004196;28;19913;-72
2022/11/17 03:55:49;;;;;;;14.52;9.70;;;8.30;99.90;;;;;;5005082;28;20041;-72
2022/11/17 03:58:18;;;;;;;14.40;10.52;;;8.30;99.90;;;;;;5009273;28;20033;-72
2022/11/17 04:00:48;;;;;;;16.98;10.63;;;8.30;99.90;;;;;;5012365;28;20033;-72
2022/11/17 04:03:14;;;;;;;15.07;10.73;;;8.30;99.90;;;;;;5007344;28;20029;-72
2022/11/17 04:05:39;;;;;;;16.25;10.80;;;8.30;99.90;;;;;;5007812;28;20115;-71
2022/11/17 04:08:05;;;;;;;16.85;11.05;;;8.20;99.90;;;;;;5007112;28;20060;-72
2022/11/17 04:15:54;;;;;;;17.42;11.05;;;8.20;99.90;;;;;;5010095;28;20403;-72
2022/11/17 04:16:00;;;;;;;17.67;11.43;;;8.10;99.90;;;;;;5008856;28;20556;-71
2022/11/17 04:18:26;;;;;;;16.90;11.32;;;8.10;99.90;;;;;;5015535;28;20030;-71
2022/11/17 04:20:54;;;;;;;19.85;11.93;;;8.00;99.90;;;;;;5015767;28;20022;-72
2022/11/17 04:23:21;;;;;;;17.52;11.88;;;8.00;99.90;;;;;;5009232;28;20033;-71
2022/11/17 04:28:36;;;;;;;17.73;11.63;;;8.00;99.90;;;;;;5012607;28;20033;-70
2022/11/17 04:31:13;;;;;;;17.17;11.43;;;7.90;99.90;;;;;;5016981;28;20567;-71
2022/11/17 04:33:41;;;;;;;15.80;11.43;;;7.90;99.90;;;;;;5009758;28;20113;-71
2022/11/17 04:36:08;;;;;;;22.15;12.70;;;7.90;99.90;;;;;;5003510;28;20087;-71
2022/11/17 04:38:34;;;;;;;16.40;11.93;;;7.90;99.90;;;;;;5006132;28;20029;-71
2022/11/17 04:43:50;;;;;;;18.38;11.98;;;7.90;99.90;;;;;;5010311;28;20045;-71
2022/11/17 04:46:16;;;;;;;16.70;11.88;;;7.90;99.90;;;;;;5009366;28;20474;-70
2022/11/17 04:48:43;;;;;;;19.30;12.95;;;7.90;99.90;;;;;;5012664;28;20112;-70
2022/11/17 04:51:09;;;;;;;18.52;13.50;;;7.90;99.90;;;;;;5016517;28;20030;-70
2022/11/17 04:53:35;;;;;;;20.40;13.40;;;7.80;99.90;;;;;;5011314;28;20026;-70
2022/11/17 04:56:02;;;;;;;19.77;13.00;;;7.80;99.90;;;;;;5016768;28;20037;-70
2022/11/17 04:58:27;;;;;;;17.88;12.65;;;7.80;99.90;;;;;;5008897;28;20025;-70
2022/11/17 05:00:54;;;;;;;21.33;12.65;;;7.80;99.90;;;;;;5013155;28;20464;-70
2022/11/17 05:03:20;;;;;;;21.50;13.05;;;7.80;99.90;;;;;;5014571;28;20038;-69
2022/11/17 05:05:47;;;;;;;16.55;12.43;;;7.80;99.90;;;;;;5014675;28;20129;-70
2022/11/17 05:08:12;;;;;;;20.13;12.40;;;7.80;99.90;;;;;;5012979;28;20551;-69
2022/11/17 05:13:24;;;;;;;18.15;11.65;;;7.90;99.90;;;;;;5007416;28;20139;-70
2022/11/17 05:18:41;;;;;;;18.15;11.40;;;7.90;99.90;;;;;;5015079;28;20028;-70
2022/11/17 05:21:08;;;;;;;16.55;11.57;;;7.90;99.90;;;;;;5020140;28;20033;-70
2022/11/17 05:23:53;;;;;;;15.90;11.07;;;7.90;99.90;;;;;;5019292;28;20045;-70
2022/11/17 05:26:21;;;;;;;15.50;11.23;;;7.90;99.90;;;;;;5017564;28;20065;-70
2022/11/17 05:28:46;;;;;;;15.13;10.13;;;7.90;99.90;;;;;;5018557;28;20030;-70
2022/11/17 05:31:12;;;;;;;15.93;10.38;;;8.00;99.90;;;;;;5010304;28;20104;-70
2022/11/17 05:33:38;;;;;;;12.50;9.30;;;8.00;99.90;;;;;;5017757;28;20745;-70
2022/11/17 05:36:05;;;;;;;13.52;10.30;;;8.00;99.90;;;;;;5016849;28;20445;-69
2022/11/17 05:38:31;;;;;;;14.35;9.77;;;8.00;99.90;;;;;;5013908;28;20751;-70
2022/11/17 05:40:56;;;;;;;14.35;9.73;;;8.00;99.90;;;;;;5015899;28;20084;-70
2022/11/17 05:43:22;;;;;;;13.43;9.65;;;8.10;99.90;;;;;;5018138;28;20029;-70
2022/11/17 05:45:47;;;;;;;14.85;9.82;;;8.10;99.90;;;;;;5016365;28;20041;-70
2022/11/17 05:48:13;;;;;;;12.88;9.07;;;8.10;99.90;;;;;;5008528;28;20022;-70
2022/11/17 05:50:39;;;;;;;14.63;9.43;;;8.00;99.90;;;;;;5014937;28;20124;-71
2022/11/17 05:53:05;;;;;;;11.73;8.48;;;8.00;99.90;;;;;;5011234;28;20029;-71
2022/11/17 05:55:31;;;;;;;11.48;8.32;;;8.10;99.90;;;;;;5008776;28;20066;-70
2022/11/17 05:58:00;;;;;;;11.30;8.32;;;8.10;99.90;;;;;;5016036;28;20110;-71
2022/11/17 06:00:26;;;;;;;11.00;8.38;;;8.10;99.90;;;;;;5013794;28;20434;-71
2022/11/17 06:02:57;;;;;;;13.18;7.85;;;8.10;99.90;;;;;;5006929;28;20037;-71
2022/11/17 06:05:24;;;;;;;10.68;7.72;;;8.10;99.90;;;;;;5000600;28;20064;-71
2022/11/17 06:07:53;;;;;;;11.05;7.70;;;8.10;99.90;;;;;;5013695;28;20481;-71
2022/11/17 06:10:19;;;;;;;11.98;7.80;;;8.00;99.90;;;;;;5008368;28;20125;-71
2022/11/17 06:12:45;;;;;;;10.02;7.45;;;8.00;99.90;;;;;;5009649;28;20029;-71
2022/11/17 06:15:11;;;;;;;10.13;7.53;;;7.90;99.90;;;;;;4654817;28;10000159;-71
2022/11/17 06:17:47;;;;;;;9.70;7.25;;;7.90;99.90;;;;;;5012748;28;20548;-71
2022/11/17 06:20:19;;;;;;;9.75;7.93;;;7.90;99.90;;;;;;5016506;28;20136;-71
2022/11/17 06:22:46;;;;;;;12.53;8.73;;;7.90;99.90;;;;;;5015926;28;20052;-71
2022/11/17 06:25:12;;;;;;;10.90;7.90;;;7.80;99.90;;;;;;5015978;28;20034;-72
2022/11/17 06:27:40;;;;;;;10.27;7.95;;;7.80;99.90;;;;;;5013873;28;20029;-71
2022/11/17 06:30:06;;;;;;;10.45;7.95;;;7.80;99.90;;;;;;5018910;28;20082;-71
2022/11/17 06:32:36;;;;;;;9.45;7.28;;;7.90;99.90;;;;;;5014042;28;20026;-71
2022/11/17 06:35:04;;;;;;;8.77;7.47;;;7.90;99.90;;;;;;5012319;28;20045;-71
2022/11/17 06:37:30;;;;;;;9.25;7.30;;;7.80;99.90;;;;;;5017031;28;20734;-72
2022/11/17 06:39:56;;;;;;;11.07;8.30;;;7.90;99.90;;;;;;5021855;28;20034;-71
2022/11/17 06:43:02;;;;;;;11.73;8.00;;;7.90;99.90;;;;;;5005213;28;20654;-71
2022/11/17 06:45:08;;;;;;;10.95;8.23;;;7.80;99.90;;;;;;5006346;28;20029;-71
2022/11/17 06:47:33;;;;;;;11.10;8.52;;;7.90;99.90;;;;;;5012243;28;20072;-71
2022/11/17 06:49:59;;;;;;;11.38;8.50;;;7.90;99.90;;;;;;5017452;28;20022;-72
2022/11/17 06:52:24;;;;;;;11.63;8.55;;;7.90;99.90;;;;;;5005350;28;20025;-71
2022/11/17 06:54:50;;;;;;;15.18;9.68;;;7.80;99.90;;;;;;5011706;28;20810;-72
2022/11/17 06:57:15;;;;;;;12.82;8.20;;;7.80;99.90;;;;;;5006471;28;20032;-71
2022/11/17 06:59:41;;;;;;;12.32;8.50;;;7.80;99.90;;;;;;5002621;28;20029;-71
2022/11/17 07:02:07;;;;;;;13.75;7.90;;;7.80;99.90;;;;;;5014105;28;20505;-71
2022/11/17 07:04:33;;;;;;;10.52;7.80;;;7.80;99.90;;;;;;5004500;28;20426;-71
2022/11/17 07:06:58;;;;;;;12.23;7.93;;;7.90;99.90;;;;;;5005334;28;20083;-71
2022/11/17 07:09:25;;;;;;;11.68;8.07;;;7.90;99.90;;;;;;5008164;28;20025;-71
2022/11/17 07:11:50;;;;;;;12.82;8.10;;;7.90;99.90;;;;;;5007150;28;20117;-71
2022/11/17 07:14:16;;;;;;;11.00;7.30;;;7.90;99.90;;;;;;5004775;28;20113;-72
2022/11/17 07:16:42;;;;;;;9.93;7.68;;;7.90;99.90;;;;;;5006897;28;20060;-72
2022/11/17 07:19:09;;;;;;;9.98;7.32;;;7.90;99.90;;;;;;5007537;28;20075;-72
2022/11/17 07:21:35;;;;;;;10.65;7.53;;;7.90;99.90;;;;;;5003345;28;20121;-72
2022/11/17 07:24:02;;;;;;;10.90;7.53;;;7.90;99.90;;;;;;5009371;28;20045;-72
2022/11/17 07:26:28;;;;;;;9.40;7.35;;;7.90;99.90;;;;;;5011436;28;20029;-72
2022/11/17 07:28:54;;;;;;;10.35;6.90;;;7.90;99.90;;;;;;5018797;28;20036;-72
2022/11/17 07:31:20;;;;;;;9.68;7.28;;;7.90;99.90;;;;;;5014838;28;20041;-72
2022/11/17 07:33:46;;;;;;;10.18;7.13;;;7.90;99.90;;;;;;5016307;28;20032;-72
2022/11/17 07:36:13;;;;;;;9.57;7.03;;;7.90;99.90;;;;;;5003261;28;20524;-72
2022/11/17 07:38:40;;;;;;;9.93;6.30;;;7.90;99.90;;;;;;4998896;28;20030;-72
2022/11/17 07:41:07;;;;;;;10.23;6.50;;;7.90;99.90;;;;;;4998666;28;20037;-72
2022/11/17 07:43:34;;;;;;;8.88;7.00;;;7.90;99.90;;;;;;5012291;28;20513;-72
2022/11/17 07:46:17;;;;;;;8.20;6.55;;;8.00;99.90;;;;;;5007293;28;20486;-72
2022/11/17 07:48:43;;;;;;;9.68;6.25;;;8.00;99.90;;;;;;5010958;28;20022;-73
2022/11/17 07:51:10;;;;;;;9.38;6.43;;;8.00;99.90;;;;;;5006320;28;20448;-72
2022/11/17 07:53:36;;;;;;;11.65;6.25;;;8.10;99.90;;;;;;5009555;28;20033;-72
2022/11/17 07:56:04;;;;;;;9.35;6.70;;;8.10;99.90;;;;;;5012212;28;20151;-72
2022/11/17 07:58:30;;;;;;;10.48;6.47;;;8.10;99.90;;;;;;5016888;28;20030;-72
2022/11/17 08:00:55;;;;;;;8.43;6.28;;;8.10;99.90;;;;;;5003683;28;20028;-72
2022/11/17 08:03:21;;;;;;;9.77;6.70;;;8.10;99.90;;;;;;5013397;28;20034;-72
2022/11/17 08:05:46;;;;;;;9.65;6.85;;;8.10;99.90;;;;;;5013115;28;20484;-72
2022/11/17 08:08:12;;;;;;;9.15;6.60;;;8.10;99.90;;;;;;5005498;28;20033;-71
2022/11/17 08:10:38;;;;;;;8.88;6.78;;;8.10;99.90;;;;;;5007806;28;20446;-72
2022/11/17 08:13:05;;;;;;;8.65;6.32;;;8.10;99.90;;;;;;5003831;28;20104;-71
2022/11/17 08:15:32;;;;;;;8.68;6.72;;;8.10;99.90;;;;;;5004948;28;20065;-72
2022/11/17 08:18:00;;;;;;;9.75;6.63;;;8.10;99.90;;;;;;5011770;28;20045;-72
2022/11/17 08:20:28;;;;;;;8.95;6.60;;;8.10;99.90;;;;;;5010024;28;20038;-71
2022/11/17 08:22:54;;;;;;;8.93;6.57;;;8.10;99.90;;;;;;5010556;28;21923;-74
2022/11/17 08:25:22;;;;;;;10.45;6.60;;;8.10;99.90;;;;;;5000896;28;20619;-74
2022/11/17 08:27:50;;;;;;;9.50;6.70;;;8.20;99.90;;;;;;4999752;28;20022;-73
2022/11/17 08:30:18;;;;;;;9.70;7.00;;;8.20;99.90;;;;;;5005475;28;20125;-74
2022/11/17 08:32:50;;;;;;;8.82;6.40;;;8.10;99.90;;;;;;5018484;28;20017;-74
2022/11/17 08:35:17;;;;;;;8.45;6.03;;;8.20;99.90;;;;;;5018608;28;20041;-74
2022/11/17 08:37:43;;;;;;;8.25;6.10;;;8.20;99.90;;;;;;5005136;28;20026;-74
2022/11/17 08:40:10;;;;;;;7.47;5.20;;;8.20;99.90;;;;;;5012378;28;20041;-74
2022/11/17 08:42:36;;;;;;;6.55;4.78;;;8.30;99.90;;;;;;5008213;28;20033;-74
2022/11/17 08:45:03;;;;;;;7.15;4.95;;;8.30;99.90;;;;;;5012101;28;20460;-74
2022/11/17 08:47:29;;;;;;;8.93;5.93;;;8.30;99.90;;;;;;5006419;28;20029;-74
2022/11/17 08:49:54;;;;;;;6.70;5.10;;;8.30;99.90;;;;;;5005403;28;20115;-73
2022/11/17 08:52:21;;;;;;;7.43;5.40;;;8.30;99.90;;;;;;5011671;28;20557;-75
2022/11/17 08:54:47;;;;;;;7.50;5.60;;;8.30;99.90;;;;;;5019244;28;20037;-74
2022/11/17 08:57:12;;;;;;;7.03;5.47;;;8.30;99.90;;;;;;5004207;28;20397;-74
2022/11/17 08:59:38;;;;;;;7.60;5.00;;;8.30;99.90;;;;;;5003288;28;20037;-72
2022/11/17 09:02:04;;;;;;;7.75;5.38;;;8.40;99.90;;;;;;5008991;28;20026;-74
2022/11/17 09:04:30;;;;;;;7.50;5.35;;;8.30;99.90;;;;;;5010488;28;20733;-74
2022/11/17 09:06:55;;;;;;;7.97;5.63;;;8.30;99.90;;;;;;5008776;28;20623;-74
2022/11/17 09:09:21;;;;;;;6.63;5.25;;;8.30;99.90;;;;;;5010002;28;20389;-73
2022/11/17 09:11:47;;;;;;;7.95;5.50;;;8.30;99.90;;;;;;5014715;28;20393;-74
2022/11/17 09:14:12;;;;;;;9.10;6.68;;;8.30;99.90;;;;;;5006938;28;20025;-74
2022/11/17 09:16:38;;;;;;;8.10;5.22;;;8.30;99.90;;;;;;5004423;28;20030;-73
2022/11/17 09:19:04;;;;;;;6.50;5.25;;;8.40;99.90;;;;;;5010891;28;20740;-74
2022/11/17 09:21:31;;;;;;;5.72;4.20;;;8.40;99.90;;;;;;5009289;28;20079;-74
2022/11/17 09:23:56;;;;;;;4.95;4.10;;;8.50;99.90;;;;;;5009762;28;20413;-73
2022/11/17 09:26:22;;;;;;;6.70;4.03;;;8.50;99.90;;;;;;5005664;28;20029;-73
2022/11/17 09:28:47;;;;;;;4.90;4.18;;;8.50;99.90;;;;;;5002032;28;20033;-72
2022/11/17 09:31:19;;;;;;;4.15;3.50;;;8.50;99.90;;;;;;5012943;28;20044;-72
2022/11/17 09:33:45;;;;;;;5.25;3.92;;;8.60;99.90;;;;;;5016838;28;20030;-74
2022/11/17 09:36:13;;;;;;;5.32;4.07;;;8.60;99.90;;;;;;5010532;28;20041;-73
2022/11/17 09:38:38;;;;;;;5.00;3.67;;;8.60;99.90;;;;;;5009401;28;20116;-74
2022/11/17 09:41:16;;;;;;;5.47;4.00;;;8.60;99.90;;;;;;5009344;28;20172;-73
2022/11/17 09:43:51;;;;;;;4.82;4.00;;;8.60;99.90;;;;;;5006463;28;20115;-74
2022/11/17 09:46:27;;;;;;;4.93;3.83;;;8.60;99.90;;;;;;5013027;28;20390;-73
2022/11/17 09:49:17;;;;;;;3.85;3.47;;;8.60;99.90;;;;;;5013770;28;20025;-73
2022/11/17 09:51:46;;;;;;;4.85;3.83;;;8.70;99.90;;;;;;5006102;28;20566;-73
2022/11/17 09:54:32;;;;;;;15.43;9.27;;;8.70;99.90;;;;;;5002318;28;20033;-74
2022/11/17 09:56:58;;;;;;;6.25;4.10;;;8.80;99.90;;;;;;5006910;28;20030;-73
2022/11/17 09:59:27;;;;;;;6.38;4.85;;;8.80;99.90;;;;;;5003629;28;20493;-73
2022/11/17 10:01:53;;;;;;;4.78;3.63;;;8.80;99.90;;;;;;5011691;28;20065;-73
2022/11/17 10:04:19;;;;;;;3.83;3.22;;;8.80;99.90;;;;;;5002990;28;20057;-74
2022/11/17 10:06:48;;;;;;;4.20;3.20;;;8.80;99.90;;;;;;5004453;28;20041;-73
2022/11/17 10:09:39;;;;;;;3.20;2.90;;;8.80;99.90;;;;;;5006212;28;20046;-73
2022/11/17 10:12:19;;;;;;;4.60;3.25;;;8.80;99.90;;;;;;5009469;28;20017;-74
2022/11/17 10:14:47;;;;;;;4.15;2.47;;;8.80;99.90;;;;;;5011614;28;20026;-73
2022/11/17 10:17:12;;;;;;;5.95;3.25;;;8.90;99.90;;;;;;5005019;28;20037;-72
2022/11/17 10:19:39;;;;;;;5.65;3.33;;;8.90;99.90;;;;;;5009049;28;20037;-73
2022/11/17 10:22:05;;;;;;;5.22;3.20;;;8.80;99.90;;;;;;5008894;28;20558;-72
2022/11/17 10:24:33;;;;;;;6.57;3.78;;;8.80;99.90;;;;;;5005305;28;20124;-73
2022/11/17 10:27:17;;;;;;;4.72;3.15;;;8.80;99.90;;;;;;5010305;28;20036;-72
2022/11/17 10:29:55;;;;;;;;;;;8.80;99.90;;;;;;5010714;28;20033;-72
2022/11/17 10:32:21;;;;;;;4.30;2.90;;;8.80;99.90;;;;;;5007709;28;19964;-72
2022/11/17 10:34:47;;;;;;;4.50;3.30;;;;;;;;;;5009572;28;20546;-72
2022/11/17 10:37:13;;;;;;;4.15;2.90;;;8.80;99.90;;;;;;5008551;28;20112;-70
2022/11/17 10:39:41;;;;;;;4.68;2.72;;;8.90;99.90;;;;;;5005070;28;20108;-72
2022/11/17 10:42:28;;;;;;;5.40;3.30;;;8.80;99.90;;;;;;5002623;28;20037;-72
2022/11/17 10:44:57;;;;;;;5.55;3.33;;;8.80;99.90;;;;;;5004807;28;20026;-72
2022/11/17 10:47:30;;;;;;;7.20;3.88;;;8.80;99.90;;;;;;5012318;28;20022;-71
2022/11/17 10:50:24;;;;;;;4.50;3.10;;;8.80;99.90;;;;;;5007166;28;20026;-71
2022/11/17 10:52:51;;;;;;;3.33;2.72;;;8.80;99.90;;;;;;5009123;28;20026;-72
2022/11/17 10:55:24;;;;;;;4.85;3.15;;;8.90;99.90;;;;;;5011690;28;20018;-72
2022/11/17 10:58:11;;;;;;;3.33;2.63;;;;;;;;;;5008609;28;20041;-72
2022/11/17 11:00:36;;;;;;;3.80;2.38;;;8.90;99.90;;;;;;5018632;28;20042;-72
2022/11/17 11:03:06;;;;;;;3.63;2.50;;;9.00;99.90;;;;;;5006888;28;20060;-71
2022/11/17 11:05:32;;;;;;;4.15;2.58;;;9.00;99.90;;;;;;5008001;28;20018;-72
2022/11/17 11:08:21;;;;;;;4.25;2.47;;;9.10;99.90;;;;;;5011082;28;20079;-72
2022/11/17 11:10:51;;;;;;;4.30;2.40;;;9.10;99.90;;;;;;5012046;28;20057;-71
2022/11/17 11:13:23;;;;;;;3.90;2.78;;;9.10;99.90;;;;;;5008797;28;20025;-71
2022/11/17 11:15:50;;;;;;;2.92;2.22;;;9.10;99.90;;;;;;5009496;28;20018;-71
2022/11/17 11:18:18;;;;;;;4.22;2.47;;;9.10;99.90;;;;;;5007348;28;20128;-72
2022/11/17 11:21:03;;;;;;;4.57;2.80;;;9.00;99.90;;;;;;5011639;28;20032;-71
2022/11/17 11:23:48;;;;;;;2.72;1.63;;;9.00;99.90;;;;;;5007910;28;20113;-72
2022/11/17 11:26:41;;;;;;;2.63;1.60;;;9.00;99.90;;;;;;5009056;28;20025;-72
2022/11/17 11:29:17;;;;;;;3.08;1.70;;;9.00;99.90;;;;;;5011218;28;20026;-71
2022/11/17 11:31:56;;;;;;;3.13;2.80;;;8.90;99.90;;;;;;5006898;28;20053;-72
2022/11/17 11:34:31;;;;;;;2.80;2.50;;;8.90;99.90;;;;;;5004998;28;20052;-72
2022/11/17 11:37:00;;;;;;;2.50;2.17;;;8.90;99.90;;;;;;5011003;28;20120;-72
2022/11/17 11:39:50;;;;;;;2.38;1.80;;;9.00;99.90;;;;;;4662688;28;9999714;-72
2022/11/17 11:42:49;;;;;;;3.70;2.40;;;9.10;99.90;;;;;;5001098;28;20382;-73
2022/11/17 11:45:42;;;;;;;4.20;2.75;;;9.20;99.90;;;;;;5002528;28;20095;-73
2022/11/17 11:48:20;;;;;;;3.20;2.60;;;9.40;99.90;;;;;;5002018;28;20041;-73
2022/11/17 11:50:49;;;;;;;2.55;1.92;;;9.60;99.90;;;;;;5006487;28;20025;-73
2022/11/17 11:53:31;;;;;;;1.92;1.40;;;9.70;99.90;;;;;;5008222;28;20389;-72
2022/11/17 11:56:26;;;;;;;4.85;3.28;;;9.80;99.90;;;;;;5008238;28;20044;-73
2022/11/17 11:59:19;;;;;;;3.40;2.20;;;9.90;99.90;;;;;;5004244;28;20053;-73
2022/11/17 12:01:59;;;;;;;4.45;2.05;;;10.00;99.90;;;;;;5001619;28;20536;-72
2022/11/17 12:04:55;;;;;;;2.67;1.60;;;10.00;99.90;;;;;;5002928;28;20046;-71
2022/11/17 12:07:25;;;;;;;2.30;1.40;;;10.10;99.90;;;;;;5009229;28;20540;-70
2022/11/17 12:10:11;;;;;;;1.20;1.10;;;10.10;99.90;;;;;;5009805;28;20025;-70
2022/11/17 12:12:39;;;;;;;3.58;1.40;;;10.20;99.90;;;;;;5009806;28;20528;-70
2022/11/17 12:15:16;;;;;;;2.22;1.60;;;10.30;99.90;;;;;;5006457;28;20060;-70
2022/11/17 12:17:51;;;;;;;1.50;1.30;;;10.40;99.90;;;;;;5006775;28;20536;-69
2022/11/17 12:20:35;;;;;;;3.45;1.85;;;10.40;99.90;;;;;;5001827;28;20033;-71
2022/11/17 12:23:08;;;;;;;2.83;1.98;;;10.50;99.90;;;;;;5007254;28;20049;-71
2022/11/17 12:25:35;;;;;;;3.50;2.80;;;10.40;99.90;;;;;;5002256;28;20041;-70
2022/11/17 12:28:35;;;;;;;5.25;2.83;;;10.50;99.90;;;;;;5003813;28;20116;-71
2022/11/17 12:31:24;;;;;;;4.85;2.80;;;10.40;99.90;;;;;;5003831;28;20053;-70
2022/11/17 12:33:53;;;;;;;2.88;2.30;;;10.50;99.90;;;;;;5006700;28;20030;-70
2022/11/17 12:36:27;;;;;;;2.95;2.00;;;;;;;;;;5001557;28;20040;-71
2022/11/17 12:38:54;;;;;;;17.27;2.47;;;10.60;99.90;;;;;;5001844;28;20022;-71
2022/11/17 12:41:47;;;;;;;3.75;1.85;;;10.70;99.90;;;;;;5007033;28;20111;-71
2022/11/17 12:44:44;;;;;;;5.45;2.20;;;10.70;99.90;;;;;;5008764;28;20060;-71
2022/11/17 12:47:16;;;;;;;5.05;2.20;;;10.80;99.90;;;;;;5008603;28;20095;-71
2022/11/17 12:50:13;;;;;;;3.03;1.77;;;10.90;99.90;;;;;;5005198;28;20026;-71
2022/11/17 12:53:03;;;;;;;3.10;2.05;;;10.90;99.90;;;;;;5009629;28;20070;-72
2022/11/17 12:55:31;;;;;;;4.80;2.42;;;11.00;99.90;;;;;;5010781;28;20198;-72
2022/11/17 12:58:09;;;;;;;5.53;2.75;;;11.00;99.90;;;;;;5002656;28;20029;-71
2022/11/17 13:00:46;;;;;;;5.10;2.17;;;11.00;99.90;;;;;;5004629;28;20579;-71
2022/11/17 13:03:16;;;;;;;4.03;2.40;;;10.90;99.90;;;;;;4997466;28;20030;-70
2022/11/17 13:05:42;;;;;;;9.73;3.03;;;10.90;99.90;;;;;;5003348;28;20120;-72
2022/11/17 13:08:21;;;;;;;6.47;2.72;;;10.90;99.90;;;;;;5007745;28;20037;-71
2022/11/17 13:10:47;;;;;;;6.78;2.13;;;10.90;99.90;;;;;;5001926;28;20401;-72
2022/11/17 13:13:20;;;;;;;6.93;1.88;;;10.80;99.90;;;;;;5003298;28;20036;-71
2022/11/17 13:15:51;;;;;;;8.27;2.10;;;10.80;99.90;;;;;;5015279;28;20388;-73
2022/11/17 13:18:23;;;;;;;6.68;2.33;;;10.80;99.90;;;;;;5007193;28;20196;-72
2022/11/17 13:20:49;;;;;;;7.65;2.15;;;10.80;99.90;;;;;;5011896;28;20068;-72
2022/11/17 13:23:19;;;;;;;6.57;2.70;;;10.70;99.90;;;;;;5005828;28;20144;-71
2022/11/17 13:25:45;;;;;;;7.25;3.75;;;10.60;99.90;;;;;;5012808;28;20029;-72
2022/11/17 13:28:30;;;;;;;6.25;3.13;;;10.50;99.90;;;;;;5005924;28;20095;-73